createdAt,value
2023-03-26T00:16:00.217Z,99325.29
2023-03-26T00:46:03.256Z,99282.53
2023-03-26T01:16:07.911Z,99265.91
2023-03-26T01:46:10.879Z,99266.60
2023-03-26T02:16:14.561Z,99250.20
2023-03-26T02:46:17.624Z,99247.86
2023-03-26T03:16:21.807Z,99247.52
2023-03-26T03:46:24.817Z,99257.71
2023-03-26T04:16:28.559Z,99256.69
2023-03-26T04:46:31.607Z,99256.75
2023-03-26T05:16:34.940Z,99259.44
2023-03-26T05:46:37.914Z,99279.88
2023-03-26T06:16:41.974Z,99297.33
2023-03-26T06:46:44.920Z,99310.62
2023-03-26T07:16:49.151Z,99336.70
2023-03-26T07:46:52.224Z,99348.09
2023-03-26T08:16:55.568Z,99349.81
2023-03-26T08:46:58.388Z,99340.09
2023-03-26T09:17:02.461Z,99329.27
2023-03-26T09:47:05.309Z,99330.63
2023-03-26T10:17:08.847Z,99351.59
2023-03-26T10:47:11.737Z,99349.95
2023-03-26T11:17:40.477Z,99332.70
2023-03-26T11:47:38.524Z,99332.61
2023-03-26T12:17:42.236Z,99346.06
2023-03-26T12:48:01.349Z,99296.09
2023-03-26T13:18:07.800Z,99274.64
2023-03-26T13:48:10.713Z,99285.42
2023-03-26T14:18:14.852Z,99286.69
2023-03-26T14:48:17.981Z,99293.22
2023-03-26T15:18:22.255Z,99295.86
2023-03-26T15:48:25.125Z,99286.73
2023-03-26T16:18:29.498Z,99267.94
2023-03-26T16:48:32.447Z,99263.23
2023-03-26T17:18:36.557Z,99277.55
2023-03-26T17:48:39.460Z,99278.15
2023-03-26T18:18:43.484Z,99292.20
2023-03-26T18:48:46.432Z,99291.22
2023-03-26T19:18:50.385Z,99281.55
2023-03-26T19:48:53.596Z,99267.70
2023-03-26T20:18:58.204Z,99268.05
2023-03-26T20:49:15.226Z,99260.34
2023-03-26T21:19:18.609Z,99278.41
2023-03-26T21:49:21.490Z,99287.84
2023-03-26T22:19:25.047Z,99291.55
2023-03-26T22:49:28.034Z,99302.52
2023-03-26T23:19:31.624Z,99330.63
2023-03-26T23:49:34.466Z,99369.91
